createdAt,value
2019-05-22T00:00:46.498Z,5.93
2019-05-22T00:03:18.461Z,6.40
2019-05-22T00:05:47.997Z,7.40
2019-05-22T00:08:18.352Z,7.80
2019-05-22T00:10:49.798Z,5.77
2019-05-22T00:13:22.697Z,5.53
2019-05-22T00:15:53.898Z,7.03
2019-05-22T00:18:23.548Z,6.50
2019-05-22T00:20:53.927Z,5.73
2019-05-22T00:23:23.338Z,6.17
2019-05-22T00:25:54.379Z,7.00
2019-05-22T00:28:25.753Z,6.70
2019-05-22T00:30:55.250Z,6.40
2019-05-22T00:33:24.550Z,6.80
2019-05-22T00:35:53.527Z,7.13
2019-05-22T00:38:23.598Z,6.23
2019-05-22T00:40:58.854Z,7.10
2019-05-22T00:43:30.550Z,6.80
2019-05-22T00:46:03.539Z,6.20
2019-05-22T00:48:34.681Z,6.03
2019-05-22T00:51:27.383Z,6.20
2019-05-22T00:54:17.247Z,6.23
2019-05-22T00:56:59.273Z,7.37
2019-05-22T00:59:33.262Z,5.10
2019-05-22T01:02:04.482Z,5.03
2019-05-22T01:04:40.541Z,4.93
2019-05-22T01:07:18.314Z,5.60
2019-05-22T01:09:50.590Z,4.80
2019-05-22T01:12:31.813Z,5.00
2019-05-22T01:15:07.934Z,4.27
2019-05-22T01:17:38.347Z,4.00
2019-05-22T01:20:10.517Z,4.20
2019-05-22T01:22:41.658Z,4.60
2019-05-22T01:25:14.475Z,4.13
2019-05-22T01:27:46.133Z,4.60
2019-05-22T01:30:24.282Z,4.83
2019-05-22T01:32:54.637Z,5.43
2019-05-22T01:35:29.218Z,6.10
2019-05-22T01:37:59.793Z,7.83
2019-05-22T01:40:41.561Z,5.07
2019-05-22T01:43:12.030Z,4.60
2019-05-22T01:45:52.364Z,5.10
2019-05-22T01:48:27.376Z,4.70
2019-05-22T01:50:57.909Z,5.43
2019-05-22T01:53:33.877Z,4.77
2019-05-22T01:56:07.061Z,4.30
2019-05-22T01:58:39.254Z,4.77
2019-05-22T02:01:20.777Z,4.30
2019-05-22T02:03:52.017Z,5.00
2019-05-22T02:06:23.401Z,5.20
2019-05-22T02:08:57.104Z,4.80
2019-05-22T02:11:28.603Z,4.60
2019-05-22T02:14:06.191Z,4.70
2019-05-22T02:16:36.661Z,5.27
2019-05-22T02:19:07.099Z,4.83
2019-05-22T02:21:36.094Z,5.20
2019-05-22T02:24:06.558Z,4.43
2019-05-22T02:26:37.254Z,4.53
2019-05-22T02:29:08.528Z,4.33
2019-05-22T02:31:39.358Z,4.13
2019-05-22T02:34:09.379Z,4.60
2019-05-22T02:36:40.690Z,4.50
2019-05-22T02:39:13.658Z,4.67
2019-05-22T02:41:47.471Z,4.27
2019-05-22T02:44:17.568Z,4.67
2019-05-22T02:46:47.296Z,7.30
2019-05-22T02:49:17.464Z,4.63
2019-05-22T02:51:48.925Z,5.03
2019-05-22T02:54:18.718Z,4.77
2019-05-22T02:56:48.055Z,3.57
2019-05-22T02:59:18.302Z,3.90
2019-05-22T03:01:48.154Z,4.00
2019-05-22T03:04:18.900Z,3.83
2019-05-22T03:06:50.182Z,4.07
2019-05-22T03:09:21.942Z,4.53
2019-05-22T03:11:55.469Z,3.80
2019-05-22T03:14:27.203Z,3.87
2019-05-22T03:17:00.816Z,4.20
2019-05-22T03:19:37.331Z,4.20
2019-05-22T03:22:28.255Z,3.57
2019-05-22T03:25:00.082Z,5.23
2019-05-22T03:27:50.160Z,4.00
2019-05-22T03:30:24.149Z,4.50
2019-05-22T03:32:55.236Z,4.27
2019-05-22T03:35:26.194Z,3.87
2019-05-22T03:37:57.138Z,4.50
2019-05-22T03:40:28.765Z,3.37
2019-05-22T03:42:59.446Z,4.43
2019-05-22T03:45:29.413Z,4.17
2019-05-22T03:47:59.325Z,3.70
2019-05-22T03:50:29.669Z,3.70
2019-05-22T03:53:05.478Z,4.20
2019-05-22T03:55:35.203Z,3.60
2019-05-22T03:58:05.237Z,3.10
2019-05-22T04:00:34.273Z,4.03
2019-05-22T04:03:03.756Z,3.90
2019-05-22T04:05:33.210Z,3.80
2019-05-22T04:08:05.095Z,3.40
2019-05-22T04:10:41.185Z,3.60
2019-05-22T04:13:10.908Z,3.53
2019-05-22T04:15:40.925Z,3.80
2019-05-22T04:18:14.443Z,3.90
2019-05-22T04:20:44.481Z,3.97
2019-05-22T04:23:13.827Z,3.73
2019-05-22T04:25:43.564Z,3.50
2019-05-22T04:28:13.226Z,3.73
2019-05-22T04:30:43.494Z,3.80
2019-05-22T04:33:12.609Z,3.37
2019-05-22T04:35:41.668Z,3.70
2019-05-22T04:38:10.764Z,3.90
2019-05-22T04:40:51.353Z,3.10
2019-05-22T04:43:23.639Z,3.53
2019-05-22T04:45:54.994Z,4.47
2019-05-22T04:48:25.278Z,3.70
2019-05-22T04:50:55.469Z,4.63
2019-05-22T04:53:24.603Z,4.30
2019-05-22T04:55:54.841Z,4.00
2019-05-22T04:58:26.655Z,3.67
2019-05-22T05:00:56.201Z,4.13
2019-05-22T05:03:27.066Z,3.97
2019-05-22T05:05:57.582Z,4.50
2019-05-22T05:08:27.677Z,3.63
2019-05-22T05:10:58.350Z,4.93
2019-05-22T05:13:27.830Z,4.13
2019-05-22T05:15:56.969Z,5.00
2019-05-22T05:18:26.279Z,3.93
2019-05-22T05:20:55.982Z,5.00
2019-05-22T05:23:25.363Z,3.60
2019-05-22T05:25:54.626Z,4.30
2019-05-22T05:28:24.938Z,3.70
2019-05-22T05:30:54.113Z,8.03
2019-05-22T05:33:25.353Z,3.97
2019-05-22T05:35:54.941Z,5.07
2019-05-22T05:38:36.189Z,3.80
2019-05-22T05:41:06.101Z,4.97
2019-05-22T05:43:35.655Z,4.40
2019-05-22T05:46:05.651Z,4.73
2019-05-22T05:48:35.764Z,4.37
2019-05-22T05:51:33.749Z,3.67
2019-05-22T05:54:08.570Z,4.43
2019-05-22T05:56:40.914Z,3.90
2019-05-22T05:59:12.476Z,4.00
2019-05-22T06:01:44.172Z,4.43
2019-05-22T06:04:14.157Z,4.23
2019-05-22T06:07:20.857Z,4.60
2019-05-22T06:10:21.521Z,4.57
2019-05-22T06:12:51.713Z,4.90
2019-05-22T06:15:24.754Z,4.87
2019-05-22T06:18:41.234Z,4.20
2019-05-22T06:21:10.805Z,4.40
2019-05-22T06:24:16.814Z,3.87
2019-05-22T06:27:08.211Z,3.77
2019-05-22T06:30:07.849Z,3.60
2019-05-22T06:33:15.642Z,3.93
2019-05-22T06:35:46.400Z,4.33
2019-05-22T06:38:47.658Z,4.10
2019-05-22T06:41:16.932Z,4.33
2019-05-22T06:44:28.334Z,3.77
2019-05-22T06:46:57.649Z,5.00
2019-05-22T06:49:44.033Z,4.00
2019-05-22T06:52:13.425Z,4.33
2019-05-22T06:54:42.485Z,4.37
2019-05-22T06:57:31.170Z,4.10
2019-05-22T07:00:14.635Z,4.20
2019-05-22T07:02:35.603Z,4.70
2019-05-22T07:05:06.955Z,4.77
2019-05-22T07:07:36.298Z,4.70
2019-05-22T07:10:10.564Z,4.20
2019-05-22T07:12:43.516Z,4.77
2019-05-22T07:15:50.239Z,5.10
2019-05-22T07:18:22.588Z,4.90
2019-05-22T07:20:52.225Z,5.63
2019-05-22T07:23:26.070Z,4.93
2019-05-22T07:25:55.810Z,5.73
2019-05-22T07:28:26.813Z,4.40
2019-05-22T07:30:56.815Z,5.03
2019-05-22T07:33:26.402Z,4.80
2019-05-22T07:36:09.450Z,4.93
2019-05-22T07:38:27.446Z,4.53
2019-05-22T07:40:57.099Z,5.53
2019-05-22T07:43:26.477Z,5.00
2019-05-22T07:45:57.371Z,4.70
2019-05-22T07:48:29.121Z,5.23
2019-05-22T07:50:59.217Z,5.67
2019-05-22T07:53:29.690Z,4.77
2019-05-22T07:56:02.709Z,4.87
2019-05-22T07:58:33.159Z,4.97
2019-05-22T08:01:03.542Z,4.67
2019-05-22T08:03:34.165Z,4.20
2019-05-22T08:06:05.394Z,4.73
2019-05-22T08:08:37.246Z,4.33
2019-05-22T08:11:07.733Z,4.90
2019-05-22T08:13:37.877Z,3.90
2019-05-22T08:16:08.476Z,5.57
2019-05-22T08:18:41.681Z,4.90
2019-05-22T08:21:11.858Z,5.40
2019-05-22T08:23:41.062Z,4.90
2019-05-22T08:26:11.628Z,4.67
2019-05-22T08:28:42.243Z,5.23
2019-05-22T08:31:13.343Z,4.80
2019-05-22T08:33:42.924Z,4.50
2019-05-22T08:36:12.552Z,4.87
2019-05-22T08:38:44.441Z,4.47
2019-05-22T08:41:15.963Z,4.67
2019-05-22T08:44:15.465Z,5.00
2019-05-22T08:46:17.854Z,4.90
2019-05-22T08:48:49.268Z,5.10
2019-05-22T08:51:19.034Z,4.70
2019-05-22T08:53:49.013Z,4.57
2019-05-22T08:56:19.333Z,5.60
2019-05-22T08:58:48.506Z,5.37
2019-05-22T09:01:18.157Z,4.70
2019-05-22T09:03:47.915Z,5.50
2019-05-22T09:06:16.968Z,4.83
2019-05-22T09:08:46.431Z,5.30
2019-05-22T09:11:15.686Z,5.40
2019-05-22T09:13:45.136Z,4.80
2019-05-22T09:16:15.004Z,5.07
2019-05-22T09:18:44.315Z,4.43
2019-05-22T09:21:14.368Z,5.00
2019-05-22T09:23:44.520Z,4.83
2019-05-22T09:26:14.453Z,4.97
2019-05-22T09:28:43.500Z,6.00
2019-05-22T09:31:12.587Z,5.07
2019-05-22T09:33:42.226Z,4.30
2019-05-22T09:36:11.370Z,5.03
2019-05-22T09:38:41.158Z,5.37
2019-05-22T09:41:10.265Z,4.33
2019-05-22T09:43:39.518Z,5.00
2019-05-22T09:46:09.287Z,5.40
2019-05-22T09:48:38.816Z,5.23
2019-05-22T09:51:07.861Z,5.00
2019-05-22T09:53:38.593Z,5.37
2019-05-22T09:56:07.656Z,5.00
2019-05-22T09:58:36.954Z,6.00
2019-05-22T10:01:11.526Z,5.27
2019-05-22T10:03:38.910Z,5.87
2019-05-22T10:06:08.160Z,5.40
2019-05-22T10:08:37.502Z,5.10
2019-05-22T10:11:06.620Z,4.87
2019-05-22T10:13:36.553Z,5.87
2019-05-22T10:16:06.221Z,5.53
2019-05-22T10:18:35.286Z,6.27
2019-05-22T10:21:04.402Z,6.30
2019-05-22T10:23:33.737Z,5.83
2019-05-22T10:26:03.478Z,4.47
2019-05-22T10:28:33.033Z,5.13
2019-05-22T10:31:02.746Z,5.67
2019-05-22T10:33:32.447Z,5.33
2019-05-22T10:36:01.957Z,5.63
2019-05-22T10:38:31.154Z,5.10
2019-05-22T10:41:00.301Z,6.50
2019-05-22T10:43:29.684Z,5.90
2019-05-22T10:45:59.362Z,5.07
2019-05-22T10:48:28.464Z,5.20
2019-05-22T10:50:57.538Z,5.37
2019-05-22T10:53:33.477Z,5.47
2019-05-22T10:55:59.258Z,5.13
2019-05-22T10:58:28.607Z,5.57
2019-05-22T11:00:57.833Z,5.70
2019-05-22T11:03:26.981Z,4.93
2019-05-22T11:06:07.311Z,5.13
2019-05-22T11:08:31.901Z,4.63
2019-05-22T11:10:58.628Z,5.70
2019-05-22T11:13:27.776Z,5.13
2019-05-22T11:15:58.519Z,5.67
2019-05-22T11:18:28.288Z,5.30
2019-05-22T11:20:57.310Z,5.07
2019-05-22T11:23:26.309Z,6.43
2019-05-22T11:25:55.341Z,5.23
2019-05-22T11:28:25.195Z,4.50
2019-05-22T11:30:54.332Z,5.50
2019-05-22T11:33:23.643Z,4.80
2019-05-22T11:35:53.384Z,4.90
2019-05-22T11:38:22.388Z,5.10
2019-05-22T11:40:51.756Z,5.03
2019-05-22T11:43:20.848Z,4.80
2019-05-22T11:45:50.419Z,4.87
2019-05-22T11:48:20.675Z,4.77
2019-05-22T11:50:49.928Z,6.70
2019-05-22T11:53:19.654Z,5.20
2019-05-22T11:55:48.681Z,6.07
2019-05-22T11:58:17.821Z,5.57
2019-05-22T12:00:47.926Z,6.40
2019-05-22T12:03:17.552Z,4.90
2019-05-22T12:05:47.085Z,5.93
2019-05-22T12:08:16.420Z,5.33
2019-05-22T12:10:45.641Z,5.50
2019-05-22T12:13:15.005Z,5.07
2019-05-22T12:15:44.061Z,5.73
2019-05-22T12:18:14.077Z,5.83
2019-05-22T12:20:44.325Z,6.97
2019-05-22T12:23:13.569Z,6.80
2019-05-22T12:25:42.605Z,6.60
2019-05-22T12:28:11.715Z,8.53
2019-05-22T12:30:41.445Z,9.00
2019-05-22T12:33:13.657Z,9.53
2019-05-22T12:35:42.217Z,11.53
2019-05-22T12:38:12.529Z,10.47
2019-05-22T12:40:41.619Z,11.97
2019-05-22T12:43:11.259Z,10.10
2019-05-22T12:45:40.302Z,8.80
2019-05-22T12:48:10.119Z,10.30
2019-05-22T12:50:40.031Z,8.13
2019-05-22T12:53:11.449Z,9.50
2019-05-22T12:55:40.850Z,8.80
2019-05-22T12:58:10.933Z,8.03
2019-05-22T13:00:40.221Z,8.40
2019-05-22T13:03:09.327Z,8.97
2019-05-22T13:05:40.174Z,8.00
2019-05-22T13:08:11.433Z,7.13
2019-05-22T13:10:41.485Z,6.70
2019-05-22T13:13:10.746Z,5.80
2019-05-22T13:15:41.060Z,6.07
2019-05-22T13:18:12.550Z,6.63
2019-05-22T13:20:45.212Z,7.00
2019-05-22T13:23:15.515Z,6.47
2019-05-22T13:25:45.896Z,5.97
2019-05-22T13:28:18.445Z,6.43
2019-05-22T13:30:51.115Z,7.63
2019-05-22T13:33:24.326Z,5.93
2019-05-22T13:35:54.758Z,5.80
2019-05-22T13:38:24.724Z,6.60
2019-05-22T13:40:54.713Z,7.33
2019-05-22T13:43:24.676Z,6.00
2019-05-22T13:45:54.833Z,6.57
2019-05-22T13:48:25.066Z,5.87
2019-05-22T13:50:56.871Z,7.10
2019-05-22T13:53:27.713Z,5.90
2019-05-22T13:55:58.489Z,5.87
2019-05-22T13:58:29.310Z,6.07
2019-05-22T14:00:58.502Z,6.80
2019-05-22T14:03:28.481Z,7.40
2019-05-22T14:05:58.283Z,7.10
2019-05-22T14:08:28.002Z,5.93
2019-05-22T14:10:58.218Z,6.80
2019-05-22T14:13:27.796Z,7.60
2019-05-22T14:15:57.866Z,7.03
2019-05-22T14:18:27.456Z,8.07
2019-05-22T14:20:56.634Z,8.20
2019-05-22T14:23:26.213Z,6.50
2019-05-22T14:25:55.858Z,6.80
2019-05-22T14:28:27.328Z,5.37
2019-05-22T14:30:56.630Z,5.80
2019-05-22T14:33:28.270Z,5.10
2019-05-22T14:35:57.126Z,5.30
2019-05-22T14:38:26.800Z,4.70
2019-05-22T14:40:56.221Z,3.90
2019-05-22T14:43:25.735Z,3.57
2019-05-22T14:45:55.558Z,3.60
2019-05-22T14:48:25.506Z,3.50
2019-05-22T14:50:54.729Z,4.10
2019-05-22T14:53:24.827Z,3.20
2019-05-22T14:55:54.821Z,2.70
2019-05-22T14:58:24.450Z,3.00
2019-05-22T15:00:54.221Z,3.80
2019-05-22T15:03:24.026Z,3.50
2019-05-22T15:05:54.303Z,2.70
2019-05-22T15:08:24.771Z,2.70
2019-05-22T15:10:54.342Z,2.20
2019-05-22T15:13:23.996Z,2.90
2019-05-22T15:15:53.242Z,3.00
2019-05-22T15:18:22.309Z,2.07
2019-05-22T15:20:56.584Z,3.73
2019-05-22T15:23:27.600Z,2.40
2019-05-22T15:25:56.918Z,2.40
2019-05-22T15:28:27.034Z,2.67
2019-05-22T15:30:57.116Z,2.70
2019-05-22T15:33:27.018Z,2.13
2019-05-22T15:35:56.258Z,2.10
2019-05-22T15:38:26.211Z,1.63
2019-05-22T15:40:55.820Z,2.80
2019-05-22T15:43:26.979Z,1.90
2019-05-22T15:45:57.297Z,2.50
2019-05-22T15:48:31.543Z,3.10
2019-05-22T15:51:05.847Z,2.70
2019-05-22T15:53:38.271Z,2.43
2019-05-22T15:56:09.360Z,1.77
2019-05-22T15:58:42.599Z,2.53
2019-05-22T16:01:16.528Z,2.27
2019-05-22T16:03:47.712Z,2.30
2019-05-22T16:06:19.441Z,1.90
2019-05-22T16:08:49.689Z,2.43
2019-05-22T16:11:21.292Z,1.87
2019-05-22T16:13:50.479Z,2.33
2019-05-22T16:16:22.254Z,1.97
2019-05-22T16:18:55.163Z,3.33
2019-05-22T16:21:24.896Z,2.60
2019-05-22T16:23:54.854Z,2.17
2019-05-22T16:26:24.437Z,1.77
2019-05-22T16:28:54.926Z,1.93
2019-05-22T16:31:24.012Z,2.37
2019-05-22T16:33:53.649Z,2.70
2019-05-22T16:36:23.958Z,2.30
2019-05-22T16:38:54.587Z,2.90
2019-05-22T16:41:25.730Z,2.30
2019-05-22T16:43:56.006Z,2.90
2019-05-22T16:46:25.646Z,2.83
2019-05-22T16:48:57.665Z,4.10
2019-05-22T16:51:28.733Z,2.00
2019-05-22T16:54:04.191Z,2.80
2019-05-22T16:56:34.243Z,2.63
2019-05-22T16:59:05.157Z,2.80
2019-05-22T17:01:54.079Z,2.70
2019-05-22T17:04:07.180Z,2.17
2019-05-22T17:06:37.394Z,2.33
2019-05-22T17:09:09.432Z,2.40
2019-05-22T17:11:39.230Z,2.60
2019-05-22T17:14:10.451Z,2.00
2019-05-22T17:16:41.211Z,2.97
2019-05-22T17:19:25.560Z,3.00
2019-05-22T17:21:43.149Z,2.57
2019-05-22T17:24:13.702Z,3.10
2019-05-22T17:26:43.647Z,2.53
2019-05-22T17:29:13.238Z,3.03
2019-05-22T17:31:43.710Z,3.00
2019-05-22T17:34:32.680Z,3.27
2019-05-22T17:37:07.854Z,3.33
2019-05-22T17:39:39.331Z,3.30
2019-05-22T17:42:11.813Z,3.90
2019-05-22T17:44:45.781Z,2.80
2019-05-22T17:47:16.720Z,2.83
2019-05-22T17:49:46.129Z,2.70
2019-05-22T17:52:16.533Z,3.00
2019-05-22T17:54:47.384Z,3.37
2019-05-22T17:57:18.341Z,2.90
2019-05-22T17:59:48.382Z,3.23
2019-05-22T18:02:18.106Z,3.07
2019-05-22T18:04:47.456Z,2.70
2019-05-22T18:07:18.010Z,2.43
2019-05-22T18:09:48.328Z,2.83
2019-05-22T18:12:19.286Z,2.57
2019-05-22T18:14:48.955Z,2.30
2019-05-22T18:17:18.882Z,2.13
2019-05-22T18:19:48.069Z,2.33
2019-05-22T18:22:17.043Z,3.00
2019-05-22T18:24:46.897Z,2.80
2019-05-22T18:27:15.871Z,3.10
2019-05-22T18:29:44.966Z,1.97
2019-05-22T18:32:14.674Z,2.40
2019-05-22T18:34:43.647Z,2.00
2019-05-22T18:37:12.699Z,2.50
2019-05-22T18:39:42.111Z,2.30
2019-05-22T18:42:11.638Z,2.20
2019-05-22T18:44:40.689Z,1.87
2019-05-22T18:47:10.190Z,1.73
2019-05-22T18:49:39.326Z,1.70
2019-05-22T18:52:09.177Z,2.53
2019-05-22T18:54:38.173Z,2.10
2019-05-22T18:57:07.402Z,1.90
2019-05-22T18:59:36.485Z,2.43
2019-05-22T19:02:07.041Z,1.93
2019-05-22T19:04:36.577Z,1.83
2019-05-22T19:07:06.186Z,2.67
2019-05-22T19:09:35.202Z,2.17
2019-05-22T19:12:04.373Z,1.87
2019-05-22T19:14:33.917Z,2.70
2019-05-22T19:17:02.878Z,1.90
2019-05-22T19:19:31.986Z,1.90
2019-05-22T19:22:01.143Z,1.70
2019-05-22T19:24:30.214Z,2.20
2019-05-22T19:26:59.263Z,2.20
2019-05-22T19:29:28.717Z,2.00
2019-05-22T19:31:57.825Z,2.53
2019-05-22T19:34:27.461Z,2.30
2019-05-22T19:36:56.767Z,3.03
2019-05-22T19:39:26.221Z,2.87
2019-05-22T19:42:02.720Z,2.57
2019-05-22T19:44:27.241Z,2.50
2019-05-22T19:46:56.426Z,4.47
2019-05-22T19:49:26.215Z,2.17
2019-05-22T19:51:57.614Z,2.30
2019-05-22T19:54:26.709Z,2.17
2019-05-22T19:56:56.409Z,3.43
2019-05-22T19:59:26.218Z,3.47
2019-05-22T20:01:56.299Z,2.20
2019-05-22T20:04:25.938Z,2.60
2019-05-22T20:06:55.961Z,2.23
2019-05-22T20:09:26.985Z,2.50
2019-05-22T20:11:56.152Z,2.27
2019-05-22T20:14:26.229Z,2.87
2019-05-22T20:16:56.146Z,2.93
2019-05-22T20:19:25.851Z,3.17
2019-05-22T20:22:14.030Z,2.33
2019-05-22T20:27:33.960Z,3.37
2019-05-22T20:30:04.631Z,2.40
2019-05-22T20:32:34.430Z,2.77
2019-05-22T20:35:04.341Z,2.60
2019-05-22T20:37:35.713Z,2.00
2019-05-22T20:40:05.152Z,2.20
2019-05-22T20:42:34.627Z,2.00
2019-05-22T20:45:04.774Z,2.00
2019-05-22T20:47:37.167Z,2.13
2019-05-22T20:50:08.322Z,2.30
2019-05-22T20:52:38.202Z,2.40
2019-05-22T20:55:07.912Z,2.20
2019-05-22T20:57:37.980Z,2.57
2019-05-22T21:00:08.198Z,2.40
2019-05-22T21:02:38.890Z,2.30
2019-05-22T21:05:09.417Z,2.93
2019-05-22T21:07:43.169Z,3.20
2019-05-22T21:10:12.525Z,2.33
2019-05-22T21:12:43.293Z,2.43
2019-05-22T21:15:14.178Z,2.10
2019-05-22T21:17:45.141Z,2.37
2019-05-22T21:20:17.390Z,2.40
2019-05-22T21:22:47.342Z,2.80
2019-05-22T21:25:17.376Z,2.93
2019-05-22T21:27:46.908Z,2.30
2019-05-22T21:30:16.902Z,2.10
2019-05-22T21:32:46.257Z,2.23
2019-05-22T21:35:18.514Z,2.40
2019-05-22T21:37:47.699Z,2.70
2019-05-22T21:40:19.765Z,3.20
2019-05-22T21:42:49.318Z,2.47
2019-05-22T21:45:18.661Z,2.30
2019-05-22T21:47:47.709Z,2.67
2019-05-22T21:50:17.536Z,2.77
2019-05-22T21:52:46.667Z,3.10
2019-05-22T21:55:17.626Z,3.10
2019-05-22T21:57:47.117Z,3.27
2019-05-22T22:00:24.480Z,2.30
2019-05-22T22:02:54.672Z,2.50
2019-05-22T22:05:24.944Z,2.93
2019-05-22T22:07:54.304Z,3.60
2019-05-22T22:10:23.448Z,2.30
2019-05-22T22:12:54.336Z,2.97
2019-05-22T22:15:24.296Z,2.30
2019-05-22T22:17:53.332Z,2.97
2019-05-22T22:20:22.494Z,3.60
2019-05-22T22:22:52.408Z,3.50
2019-05-22T22:25:23.898Z,4.00
2019-05-22T22:27:54.709Z,3.47
2019-05-22T22:30:32.218Z,3.80
2019-05-22T22:33:05.352Z,4.10
2019-05-22T22:35:34.994Z,3.53
2019-05-22T22:38:04.617Z,4.27
2019-05-22T22:40:34.370Z,3.70
2019-05-22T22:43:06.168Z,3.70
2019-05-22T22:45:50.411Z,3.47
2019-05-22T22:48:22.994Z,3.97
2019-05-22T22:50:52.329Z,3.23
2019-05-22T22:53:21.892Z,3.53
2019-05-22T22:55:51.764Z,3.60
2019-05-22T22:58:21.235Z,3.03
2019-05-22T23:00:53.296Z,3.53
2019-05-22T23:03:26.544Z,2.87
2019-05-22T23:05:56.591Z,3.63
2019-05-22T23:08:29.658Z,3.63
2019-05-22T23:10:58.814Z,3.93
2019-05-22T23:13:28.297Z,3.53
2019-05-22T23:15:57.884Z,3.57
2019-05-22T23:19:13.384Z,3.37
2019-05-22T23:21:40.903Z,3.10
2019-05-22T23:24:08.994Z,3.43
2019-05-22T23:26:40.156Z,4.17
2019-05-22T23:29:11.304Z,3.30
2019-05-22T23:31:41.349Z,4.00
2019-05-22T23:34:11.645Z,4.20
2019-05-22T23:36:41.902Z,3.70
2019-05-22T23:39:12.668Z,4.70
2019-05-22T23:41:43.091Z,3.57
2019-05-22T23:44:16.088Z,4.20
2019-05-22T23:46:45.796Z,4.63
2019-05-22T23:49:15.555Z,5.10
2019-05-22T23:51:45.222Z,4.73
2019-05-22T23:54:14.323Z,4.00
2019-05-22T23:56:45.950Z,4.90
2019-05-22T23:59:17.462Z,4.20
